Time;durP1;ratioP1;P1;durP2;ratioP2;P2;SDS_P1;SDS_P2;PMS_P1;PMS_P2;Temp;Humidity;BMP_temperature;BMP_pressure;BME280_temperature;BME280_humidity;BME280_pressure;Samples;Min_cycle;Max_cycle;Signal;HPM_P1;HPM_P2
2020/12/17 00:02:00;;;;;;;19.50;13.63;;;;;;;8.40;100.00;101007.19;5000780;28;20045;-89
2020/12/17 00:04:26;;;;;;;19.73;13.55;;;;;;;8.42;100.00;101010.56;4995371;28;20530;-85
2020/12/17 00:06:52;;;;;;;18.38;12.88;;;;;;;8.44;100.00;101001.41;5001765;28;20132;-90
2020/12/17 00:09:20;;;;;;;20.60;13.45;;;;;;;8.46;100.00;100995.91;4990351;28;20145;-88
2020/12/17 00:11:46;;;;;;;18.38;12.85;;;;;;;8.47;100.00;100993.09;4988404;28;20081;-85
2020/12/17 00:14:12;;;;;;;17.33;13.02;;;;;;;8.50;100.00;100991.97;4990719;28;20034;-87
2020/12/17 00:16:38;;;;;;;17.98;13.25;;;;;;;8.51;100.00;100988.28;4989078;28;20415;-90
2020/12/17 00:19:04;;;;;;;20.30;13.65;;;;;;;8.51;100.00;100994.47;5007972;28;20033;-84
2020/12/17 00:21:36;;;;;;;18.15;13.20;;;;;;;8.51;100.00;100993.66;4990796;28;20034;-86
2020/12/17 00:24:07;;;;;;;18.25;12.60;;;;;;;8.52;100.00;101000.69;4999802;28;20073;-87
2020/12/17 00:26:35;;;;;;;18.63;13.00;;;;;;;8.53;100.00;101007.72;4986629;28;20038;-86
2020/12/17 00:29:12;;;;;;;19.65;12.90;;;;;;;8.53;100.00;101002.38;5000671;28;20044;-88
2020/12/17 00:31:38;;;;;;;20.23;11.75;;;;;;;8.53;100.00;101008.56;4977068;28;20046;-86
2020/12/17 00:34:04;;;;;;;17.52;11.85;;;;;;;8.55;100.00;101005.75;5004112;28;20050;-88
2020/12/17 00:36:36;;;;;;;19.67;12.60;;;;;;;8.56;100.00;101010.09;4976547;28;20037;-87
2020/12/17 00:39:04;;;;;;;17.63;12.90;;;;;;;8.59;100.00;100999.09;4959851;28;20034;-88
2020/12/17 00:41:37;;;;;;;19.83;12.27;;;;;;;8.58;100.00;101000.94;4992328;28;20046;-88
2020/12/17 00:44:02;;;;;;;16.05;12.05;;;;;;;8.63;100.00;101013.03;4992781;28;20493;-87
2020/12/17 00:46:33;;;;;;;17.77;12.10;;;;;;;8.66;100.00;101005.56;4976435;28;20040;-87
2020/12/17 00:49:04;;;;;;;19.73;11.55;;;;;;;8.66;100.00;100994.88;5005782;28;20057;-86
2020/12/17 00:51:31;;;;;;;18.02;12.23;;;;;;;8.68;100.00;100994.72;4992564;28;20427;-84
2020/12/17 00:53:57;;;;;;;18.10;11.50;;;;;;;8.68;100.00;100995.56;4993326;28;20042;-88
2020/12/17 00:56:22;;;;;;;16.60;11.07;;;;;;;8.72;100.00;100996.97;4997809;28;20034;-87
2020/12/17 00:58:48;;;;;;;15.48;11.32;;;;;;;8.75;100.00;100985.97;4994740;28;20048;-88
2020/12/17 01:01:14;;;;;;;17.42;12.23;;;;;;;8.77;100.00;100983.13;4982968;28;20042;-88
2020/12/17 01:03:40;;;;;;;16.33;10.98;;;;;;;8.77;100.00;100975.94;4992335;28;20046;-86
2020/12/17 01:06:09;;;;;;;18.38;10.85;;;;;;;8.79;100.00;100963.25;4994425;28;20046;-87
2020/12/17 01:08:35;;;;;;;16.60;11.65;;;;;;;8.80;100.00;100972.13;5003312;28;20054;-87
2020/12/17 01:11:03;;;;;;;14.93;11.38;;;;;;;8.81;100.00;100973.81;4976987;28;20117;-88
2020/12/17 01:13:28;;;;;;;18.38;11.00;;;;;;;8.84;100.00;100970.00;5003144;28;20074;-86
2020/12/17 01:15:55;;;;;;;14.55;10.35;;;;;;;8.82;100.00;100976.34;4993900;28;20073;-88
2020/12/17 01:18:21;;;;;;;15.35;10.57;;;;;;;8.86;100.00;100970.69;4984915;28;20081;-88
2020/12/17 01:20:48;;;;;;;14.95;10.00;;;;;;;8.86;100.00;100974.22;4975545;28;20453;-85
2020/12/17 01:23:15;;;;;;;17.92;9.98;;;;;;;8.88;100.00;100966.03;4972319;28;20042;-86
2020/12/17 01:25:41;;;;;;;15.38;10.48;;;;;;;8.91;100.00;100965.72;4993528;28;20042;-89
2020/12/17 01:28:12;;;;;;;15.15;10.48;;;;;;;8.93;100.00;100969.13;4977472;28;20041;-86
2020/12/17 01:30:45;;;;;;;16.65;9.95;;;;;;;8.96;100.00;100972.31;4991310;28;20800;-88
2020/12/17 01:33:11;;;;;;;13.85;10.23;;;;;;;8.97;100.00;100965.97;4974725;28;20484;-87
2020/12/17 01:35:42;;;;;;;17.02;9.68;;;;;;;8.98;100.00;100964.16;4975420;28;20053;-88
2020/12/17 01:38:09;;;;;;;14.27;8.90;;;;;;;8.98;100.00;100964.16;4963285;28;20037;-85
2020/12/17 01:40:39;;;;;;;13.43;9.32;;;;;;;9.02;100.00;100970.88;4991283;28;20042;-88
2020/12/17 01:43:05;;;;;;;13.65;9.70;;;;;;;9.06;100.00;100963.38;4994453;28;20038;-85
2020/12/17 01:45:32;;;;;;;13.68;9.93;;;;;;;9.08;100.00;100986.34;4989571;28;20046;-89
2020/12/17 01:48:00;;;;;;;14.30;9.00;;;;;;;9.07;100.00;100983.84;5009827;28;20419;-87
2020/12/17 01:50:28;;;;;;;14.60;8.82;;;;;;;9.10;100.00;100997.75;4992630;28;20042;-86
2020/12/17 01:52:54;;;;;;;14.17;9.53;;;;;;;9.10;100.00;100987.06;4988824;28;20045;-85
2020/12/17 01:55:23;;;;;;;15.23;9.40;;;;;;;9.12;99.87;100997.59;4989419;28;20053;-88
2020/12/17 01:57:48;;;;;;;13.07;9.23;;;;;;;9.14;99.72;100998.28;4992545;28;20057;-89
2020/12/17 02:00:15;;;;;;;12.50;8.70;;;;;;;9.14;99.58;100991.09;4978290;28;20065;-87
2020/12/17 02:02:41;;;;;;;14.65;9.35;;;;;;;9.14;99.97;100990.25;4992555;28;20050;-90
2020/12/17 02:05:08;;;;;;;11.43;8.60;;;;;;;9.14;100.00;100990.25;4996039;28;20047;-86
2020/12/17 02:07:36;;;;;;;14.15;8.93;;;;;;;9.14;99.75;100985.75;5007751;28;20056;-87
2020/12/17 02:10:09;;;;;;;12.82;9.13;;;;;;;9.14;99.89;100983.06;4960682;28;20042;-86
2020/12/17 02:12:48;;;;;;;11.65;8.32;;;;;;;9.13;99.87;100975.19;4974052;28;20100;-88
2020/12/17 02:15:15;;;;;;;12.70;8.97;;;;;;;9.14;99.62;100979.56;4984390;28;20550;-87
2020/12/17 02:17:41;;;;;;;14.07;8.80;;;;;;;9.11;99.64;100975.34;5007517;28;20056;-86
2020/12/17 02:20:08;;;;;;;12.13;8.30;;;;;;;9.13;99.61;100976.03;5003024;28;20050;-85
2020/12/17 02:22:36;;;;;;;11.20;8.02;;;;;;;9.13;99.41;100972.53;4991176;28;20056;-87
2020/12/17 02:25:10;;;;;;;11.65;7.85;;;;;;;9.16;99.07;100966.88;4993525;28;20034;-89
2020/12/17 02:27:37;;;;;;;11.70;7.47;;;;;;;9.19;98.79;100974.59;4992655;28;20051;-85
2020/12/17 02:30:06;;;;;;;14.13;8.07;;;;;;;9.19;98.75;100975.44;4999333;28;20404;-85
2020/12/17 02:32:32;;;;;;;14.55;8.95;;;;;;;9.20;98.89;100969.06;4988389;28;20046;-89
2020/12/17 02:34:58;;;;;;;10.43;7.55;;;;;;;9.22;98.72;100968.94;4993587;28;20045;-89
2020/12/17 02:37:24;;;;;;;12.10;8.07;;;;;;;9.21;98.70;100973.44;4969556;28;20049;-86
2020/12/17 02:39:51;;;;;;;13.43;8.07;;;;;;;9.24;98.59;100967.78;4991614;28;20034;-89
2020/12/17 02:42:17;;;;;;;11.10;7.65;;;;;;;9.25;98.74;100982.03;4976191;28;20046;-88
2020/12/17 02:44:48;;;;;;;13.82;7.88;;;;;;;9.26;98.80;100973.84;4994195;28;20042;-88
2020/12/17 02:47:18;;;;;;;10.48;7.05;;;;;;;9.24;98.88;100973.16;4979343;28;20134;-86
2020/12/17 02:49:44;;;;;;;11.45;7.82;;;;;;;9.24;99.29;100969.63;4973172;28;20391;-87
2020/12/17 02:52:09;;;;;;;11.98;8.13;;;;;;;9.24;99.08;100970.47;4998344;28;20030;-90
2020/12/17 02:54:35;;;;;;;11.88;8.35;;;;;;;9.25;99.41;100966.78;4962226;28;20100;-85
2020/12/17 02:57:00;;;;;;;10.48;7.57;;;;;;;9.28;99.27;100960.28;4977302;28;20042;-88
2020/12/17 02:59:25;;;;;;;11.23;8.35;;;;;;;9.25;99.41;100953.41;4974469;28;20065;-84
2020/12/17 03:01:51;;;;;;;13.27;8.65;;;;;;;9.26;99.42;100954.22;4975662;28;20121;-87
2020/12/17 03:04:16;;;;;;;10.90;7.88;;;;;;;9.28;99.30;100952.25;5005480;28;20046;-85
2020/12/17 03:06:42;;;;;;;14.07;7.63;;;;;;;9.25;99.55;100961.44;5008289;28;20046;-92
2020/12/17 03:09:07;;;;;;;12.23;8.48;;;;;;;9.27;99.96;100967.50;5008682;28;20080;-87
2020/12/17 03:11:34;;;;;;;11.35;7.82;;;;;;;9.29;99.41;100971.84;4990817;28;20080;-88
2020/12/17 03:14:00;;;;;;;12.90;7.90;;;;;;;9.30;99.77;100962.84;4990363;28;20080;-85
2020/12/17 03:16:26;;;;;;;11.00;7.82;;;;;;;9.30;99.60;100971.69;4989858;28;20079;-86
2020/12/17 03:18:51;;;;;;;11.20;7.45;;;;;;;9.32;99.35;100963.50;4992145;28;20046;-86
2020/12/17 03:21:16;;;;;;;12.27;9.00;;;;;;;9.33;99.50;100970.56;4975147;28;20141;-88
2020/12/17 03:23:42;;;;;;;13.02;8.07;;;;;;;9.35;99.14;100969.41;4992488;28;20045;-87
2020/12/17 03:26:09;;;;;;;11.32;8.25;;;;;;;9.35;99.21;100966.75;4991037;28;20029;-87
2020/12/17 03:28:36;;;;;;;11.77;8.55;;;;;;;9.36;99.20;100973.78;4972779;28;22744;-85
2020/12/17 03:31:01;;;;;;;9.85;7.82;;;;;;;9.38;99.28;100969.13;4990610;28;20472;-86
2020/12/17 03:33:26;;;;;;;13.20;8.40;;;;;;;9.39;99.45;100964.59;4989066;28;20129;-87
2020/12/17 03:35:53;;;;;;;10.05;7.82;;;;;;;9.38;99.68;100976.28;4979657;28;20088;-86
2020/12/17 03:38:19;;;;;;;13.30;8.90;;;;;;;9.38;99.61;100976.28;5002980;28;20045;-85
2020/12/17 03:40:45;;;;;;;13.63;10.02;;;;;;;9.35;100.00;100971.22;4975460;28;20535;-87
2020/12/17 03:43:11;;;;;;;13.82;7.97;;;;;;;9.31;100.00;100959.16;4999481;28;20042;-90
2020/12/17 03:45:36;;;;;;;11.27;8.70;;;;;;;9.33;100.00;100962.53;4970314;28;20061;-89
2020/12/17 03:48:03;;;;;;;11.20;8.68;;;;;;;9.33;100.00;100951.81;4991388;28;20042;-88
2020/12/17 03:50:28;;;;;;;12.00;7.95;;;;;;;9.33;100.00;100949.13;4988570;28;20104;-85
2020/12/17 03:52:55;;;;;;;13.23;8.57;;;;;;;9.32;100.00;100950.13;4987407;28;20488;-87
2020/12/17 03:55:22;;;;;;;15.15;8.50;;;;;;;9.32;100.00;100948.31;4997651;28;20062;-87
2020/12/17 03:57:47;;;;;;;13.32;7.78;;;;;;;9.30;100.00;100946.75;4992120;28;20046;-86
2020/12/17 04:00:14;;;;;;;11.80;8.60;;;;;;;9.29;100.00;100945.91;5007866;28;20056;-85
2020/12/17 04:02:39;;;;;;;12.80;8.55;;;;;;;9.29;100.00;100940.53;4976077;28;20050;-86
2020/12/17 04:05:08;;;;;;;11.80;7.53;;;;;;;9.26;100.00;100936.34;5004657;28;20061;-84
2020/12/17 04:07:33;;;;;;;14.75;8.40;;;;;;;9.25;100.00;100939.19;4988132;28;20054;-88
2020/12/17 04:09:59;;;;;;;12.13;8.40;;;;;;;9.24;100.00;100937.50;4990546;28;20510;-89
2020/12/17 04:12:26;;;;;;;15.63;8.48;;;;;;;9.25;100.00;100931.16;4959029;28;20121;-89
2020/12/17 04:14:51;;;;;;;14.38;8.40;;;;;;;9.25;100.00;100934.66;4976400;28;20034;-85
2020/12/17 04:17:17;;;;;;;11.93;7.80;;;;;;;9.26;100.00;100936.34;4971834;28;20038;-84
2020/12/17 04:19:42;;;;;;;11.23;8.00;;;;;;;9.28;100.00;100922.81;4999510;28;20129;-88
2020/12/17 04:22:16;;;;;;;12.70;8.07;;;;;;;9.28;100.00;100936.19;4985480;28;20138;-87
2020/12/17 04:24:41;;;;;;;10.00;7.75;;;;;;;9.26;100.00;100931.00;4990513;28;20125;-86
2020/12/17 04:27:14;;;;;;;12.88;8.00;;;;;;;9.27;100.00;100940.72;4990476;28;20034;-86
2020/12/17 04:29:44;;;;;;;10.70;7.63;;;;;;;9.30;100.00;100931.53;4993720;28;20046;-88
2020/12/17 04:32:10;;;;;;;11.50;7.80;;;;;;;9.32;100.00;100926.00;4985930;28;20037;-88
2020/12/17 04:34:37;;;;;;;13.25;8.40;;;;;;;9.32;100.00;100923.34;4992053;28;20046;-84
2020/12/17 04:37:04;;;;;;;12.70;8.50;;;;;;;9.35;100.00;100923.88;4995286;28;20081;-87
2020/12/17 04:39:30;;;;;;;10.77;7.60;;;;;;;9.36;100.00;100927.41;4971296;28;20069;-88
2020/12/17 04:41:57;;;;;;;10.32;7.90;;;;;;;9.37;100.00;100926.41;4990734;28;20840;-86
2020/12/17 04:44:25;;;;;;;11.25;8.68;;;;;;;9.39;99.81;100919.06;4977023;28;20358;-85
2020/12/17 04:47:02;;;;;;;11.38;8.02;;;;;;;9.40;99.85;100923.41;5007557;28;20034;-89
2020/12/17 04:49:46;;;;;;;10.25;7.88;;;;;;;9.41;99.78;100928.63;4986971;28;20045;-89
2020/12/17 04:52:19;;;;;;;11.82;7.47;;;;;;;9.41;99.28;100917.91;4982878;28;20042;-89
2020/12/17 04:54:44;;;;;;;12.73;7.68;;;;;;;9.44;99.34;100919.44;5000450;28;20112;-89
2020/12/17 04:57:15;;;;;;;8.77;7.30;;;;;;;9.44;99.32;100912.25;4984682;28;20038;-87
2020/12/17 04:59:48;;;;;;;10.95;7.53;;;;;;;9.45;99.00;100911.25;4991260;28;20135;-86
2020/12/17 05:02:16;;;;;;;11.70;7.80;;;;;;;9.46;98.83;100904.88;4987519;28;20064;-88
2020/12/17 05:04:44;;;;;;;11.73;7.70;;;;;;;9.47;98.99;100903.06;4985862;28;20057;-88
2020/12/17 05:07:21;;;;;;;10.50;7.43;;;;;;;9.47;99.12;100906.59;4986557;28;20404;-91
2020/12/17 05:09:47;;;;;;;10.25;7.30;;;;;;;9.48;98.92;100916.28;4921134;28;20396;-86
2020/12/17 05:12:14;;;;;;;10.98;7.40;;;;;;;9.49;98.62;100923.34;4972364;28;20061;-86
2020/12/17 05:14:40;;;;;;;12.32;6.95;;;;;;;9.50;98.56;100921.50;4991821;28;20499;-85
2020/12/17 05:17:07;;;;;;;10.05;7.28;;;;;;;9.54;98.30;100928.22;5004016;28;20443;-86
2020/12/17 05:19:33;;;;;;;12.25;7.18;;;;;;;9.55;98.39;100935.28;4991245;28;20058;-88
2020/12/17 05:22:00;;;;;;;14.13;8.05;;;;;;;9.57;98.41;100937.81;5010317;28;20049;-83
2020/12/17 05:24:27;;;;;;;10.93;7.32;;;;;;;9.57;98.68;100940.47;5009508;28;20515;-86
2020/12/17 05:26:55;;;;;;;10.13;7.38;;;;;;;9.58;98.68;100934.97;4978288;28;20132;-88
2020/12/17 05:29:21;;;;;;;10.98;7.85;;;;;;;9.58;98.95;100937.66;4986549;28;20669;-84
2020/12/17 05:31:49;;;;;;;12.40;8.10;;;;;;;9.58;99.22;100942.16;4976331;28;20034;-84
2020/12/17 05:34:15;;;;;;;14.95;7.90;;;;;;;9.56;99.54;100946.84;5004946;28;20037;-85
2020/12/17 05:36:43;;;;;;;13.70;7.95;;;;;;;9.55;100.00;100950.50;5005385;28;20108;-84
2020/12/17 05:39:14;;;;;;;11.65;8.50;;;;;;;9.56;100.00;100955.72;4992810;28;20042;-86
2020/12/17 05:41:40;;;;;;;11.55;8.57;;;;;;;9.52;100.00;100961.53;5006084;28;20495;-86
2020/12/17 05:44:35;;;;;;;12.50;8.30;;;;;;;9.49;100.00;100957.31;5004095;28;20112;-87
2020/12/17 05:47:13;;;;;;;11.27;8.23;;;;;;;9.47;100.00;100959.31;4985321;28;20046;-85
2020/12/17 05:49:40;;;;;;;16.23;8.60;;;;;;;9.43;100.00;100952.56;4991394;28;20581;-85
2020/12/17 05:52:19;;;;;;;13.05;8.65;;;;;;;9.41;100.00;100970.66;4993398;28;20129;-86
2020/12/17 05:54:54;;;;;;;12.85;8.18;;;;;;;9.40;100.00;100968.94;4974864;28;20049;-85
2020/12/17 05:57:20;;;;;;;12.85;8.90;;;;;;;9.39;100.00;100972.63;4992202;28;20560;-85
2020/12/17 05:59:56;;;;;;;14.05;9.73;;;;;;;9.37;100.00;100966.56;4990129;28;20046;-85
2020/12/17 06:02:25;;;;;;;15.98;8.88;;;;;;;9.37;100.00;100974.59;4992401;28;20492;-86
2020/12/17 06:05:02;;;;;;;;;;;;;;;9.39;100.00;100977.97;4991473;28;20050;-85
2020/12/17 06:07:49;;;;;;;17.83;9.88;;;;;;;9.32;100.00;100976.91;5010688;28;19918;-87
2020/12/17 06:10:20;;;;;;;15.32;9.88;;;;;;;9.32;100.00;100982.25;4992681;28;20046;-88
2020/12/17 06:12:49;;;;;;;17.52;10.63;;;;;;;9.32;100.00;100990.28;4990350;28;20157;-90
2020/12/17 06:15:20;;;;;;;16.48;11.00;;;;;;;9.32;100.00;100988.47;4993681;28;20480;-86
2020/12/17 06:17:51;;;;;;;15.05;10.68;;;;;;;9.30;100.00;100984.25;4989391;28;20050;-86
2020/12/17 06:20:17;;;;;;;17.13;11.02;;;;;;;9.28;100.00;100997.78;4977914;28;20045;-90
2020/12/17 06:22:50;;;;;;;15.18;10.45;;;;;;;9.29;100.00;100998.63;4986003;28;20100;-86
2020/12/17 06:25:16;;;;;;;15.00;10.13;;;;;;;9.27;100.00;100990.75;5007016;28;20046;-88
2020/12/17 06:27:46;;;;;;;16.52;11.25;;;;;;;9.25;100.00;100993.56;5004931;28;20038;-90
2020/12/17 06:30:16;;;;;;;15.02;10.90;;;;;;;9.25;100.00;101006.97;4991491;28;20100;-88
2020/12/17 06:32:41;;;;;;;15.20;10.93;;;;;;;9.23;100.00;101000.91;4988179;28;20049;-87
2020/12/17 06:35:20;;;;;;;17.90;12.40;;;;;;;9.24;100.00;101007.97;5005576;28;20038;-87
2020/12/17 06:37:46;;;;;;;17.67;12.30;;;;;;;9.22;100.00;101007.25;4962398;28;20050;-85
2020/12/17 06:40:11;;;;;;;17.75;12.38;;;;;;;9.19;100.00;101004.88;5004664;28;20045;-84
2020/12/17 06:42:38;;;;;;;20.88;13.82;;;;;;;9.18;100.00;101005.88;4974882;28;20066;-88
2020/12/17 06:45:40;;;;;;;19.25;12.07;;;;;;;9.15;100.00;101008.88;5010032;28;20343;-85
2020/12/17 06:48:27;;;;;;;19.95;13.85;;;;;;;9.13;100.00;101012.69;5005805;28;20045;-89
2020/12/17 06:50:53;;;;;;;17.10;11.45;;;;;;;9.12;100.00;101019.88;5007722;28;20056;-86
2020/12/17 06:53:18;;;;;;;19.30;12.82;;;;;;;9.12;100.00;101024.38;4993709;28;20309;-89
2020/12/17 06:55:45;;;;;;;17.08;11.80;;;;;;;9.12;100.00;101025.22;4975929;28;20076;-87
2020/12/17 06:58:21;;;;;;;17.52;11.95;;;;;;;9.10;100.00;101016.50;4985662;28;20100;-87
2020/12/17 07:00:52;;;;;;;15.68;12.07;;;;;;;9.10;100.00;101021.00;4977283;28;20060;-85
2020/12/17 07:03:54;;;;;;;19.00;13.32;;;;;;;9.09;100.00;101032.69;4995303;28;20125;-86
2020/12/17 07:06:24;;;;;;;18.83;13.80;;;;;;;9.07;100.00;101046.25;5009777;28;20053;-89
2020/12/17 07:08:56;;;;;;;16.27;12.43;;;;;;;9.07;100.00;101048.94;4983424;28;20575;-84
2020/12/17 07:11:34;;;;;;;20.83;13.43;;;;;;;9.07;100.00;101069.50;5006255;28;20038;-84
2020/12/17 07:14:01;;;;;;;18.02;13.50;;;;;;;9.06;100.00;101071.31;4998606;28;20046;-83
2020/12/17 07:16:26;;;;;;;16.83;12.38;;;;;;;9.06;100.00;101065.13;4958189;28;20489;-87
2020/12/17 07:19:12;;;;;;;19.65;12.73;;;;;;;9.05;100.00;101088.38;5003167;28;20066;-85
2020/12/17 07:21:40;;;;;;;19.20;12.20;;;;;;;9.04;100.00;101089.38;4990799;28;20092;-84
2020/12/17 07:24:06;;;;;;;20.47;13.43;;;;;;;9.04;100.00;101100.09;4994009;28;20080;-88
2020/12/17 07:26:32;;;;;;;16.70;10.18;;;;;;;9.03;100.00;101103.72;4987683;28;20265;-88
2020/12/17 07:28:58;;;;;;;20.02;12.77;;;;;;;9.02;100.00;101104.72;4993885;28;20054;-86
2020/12/17 07:31:24;;;;;;;17.20;11.18;;;;;;;9.02;100.00;101110.94;4989290;28;20038;-86
2020/12/17 07:33:50;;;;;;;18.45;12.30;;;;;;;9.02;100.00;101112.75;4988397;28;20544;-89
2020/12/17 07:36:16;;;;;;;17.95;12.15;;;;;;;9.00;100.00;101122.75;4993492;28;20161;-87
2020/12/17 07:38:43;;;;;;;16.92;12.73;;;;;;;9.01;100.00;101135.19;4977837;28;20057;-87
2020/12/17 07:41:27;;;;;;;15.25;11.18;;;;;;;9.01;100.00;101132.50;4994122;28;20069;-86
2020/12/17 07:43:53;;;;;;;15.90;11.65;;;;;;;8.99;100.00;101142.50;4938551;28;20051;-85
2020/12/17 07:46:35;;;;;;;16.42;11.65;;;;;;;8.98;100.00;101136.31;4970801;28;20043;-87
2020/12/17 07:49:02;;;;;;;16.00;11.38;;;;;;;8.96;100.00;101153.50;4989066;28;20564;-83
2020/12/17 07:51:32;;;;;;;15.77;11.38;;;;;;;8.95;100.00;101157.19;4972607;28;20042;-89
2020/12/17 07:54:02;;;;;;;14.63;11.75;;;;;;;8.92;100.00;101152.94;4952229;28;20061;-86
2020/12/17 07:56:27;;;;;;;16.30;12.00;;;;;;;8.91;100.00;101161.94;4973098;28;20042;-84
2020/12/17 07:58:53;;;;;;;14.73;11.05;;;;;;;8.89;100.00;101174.66;4988648;28;20491;-88
2020/12/17 08:01:18;;;;;;;16.67;12.15;;;;;;;8.89;100.00;101174.66;4955958;28;20471;-86
2020/12/17 08:03:45;;;;;;;17.95;12.23;;;;;;;8.87;100.00;101175.78;4965821;28;20065;-88
2020/12/17 08:06:12;;;;;;;16.13;12.32;;;;;;;8.86;100.00;101184.78;4956460;28;20045;-87
2020/12/17 08:08:39;;;;;;;17.50;12.50;;;;;;;8.86;100.00;101191.00;4969050;28;20438;-85
2020/12/17 08:11:06;;;;;;;15.38;12.00;;;;;;;8.86;100.00;101195.50;4978652;28;20038;-90
2020/12/17 08:13:31;;;;;;;15.38;12.70;;;;;;;8.84;100.00;101187.63;4980271;28;20050;-85
2020/12/17 08:15:58;;;;;;;18.48;11.93;;;;;;;8.82;100.00;101203.81;4990727;28;20687;-89
2020/12/17 08:18:26;;;;;;;15.35;12.02;;;;;;;8.81;100.00;101210.16;5008829;28;20042;-88
2020/12/17 08:21:04;;;;;;;17.90;12.40;;;;;;;8.79;100.00;101211.28;4993102;28;20046;-86
2020/12/17 08:23:31;;;;;;;17.27;13.18;;;;;;;8.80;100.00;101215.63;4984116;28;20046;-87
2020/12/17 08:26:01;;;;;;;17.33;13.68;;;;;;;8.78;100.00;101218.47;4976546;28;20372;-86
2020/12/17 08:28:27;;;;;;;;;;;;;;;8.77;100.00;101221.28;4992416;28;20129;-89
2020/12/17 08:31:01;;;;;;;17.08;13.98;;;;;;;8.70;100.00;101237.06;5011036;28;19914;-88
2020/12/17 08:33:27;;;;;;;17.15;13.57;;;;;;;8.69;100.00;101250.56;4993108;28;20068;-89
2020/12/17 08:36:00;;;;;;;16.42;13.27;;;;;;;8.68;100.00;101247.06;4974172;28;20046;-86
2020/12/17 08:38:26;;;;;;;15.98;14.00;;;;;;;8.71;100.00;101249.44;4994636;28;20136;-89
2020/12/17 08:40:55;;;;;;;19.17;13.63;;;;;;;8.70;100.00;101249.59;4977241;28;20363;-86
2020/12/17 08:43:21;;;;;;;17.60;12.27;;;;;;;8.70;100.00;101260.31;4989250;28;20189;-87
2020/12/17 08:45:53;;;;;;;18.02;12.30;;;;;;;8.69;100.00;101259.47;5001253;28;20052;-85
2020/12/17 08:48:18;;;;;;;19.17;14.40;;;;;;;8.71;100.00;101254.78;4991328;28;20560;-84
2020/12/17 08:50:44;;;;;;;17.33;13.90;;;;;;;8.72;100.00;101256.50;4994514;28;20121;-89
2020/12/17 08:53:23;;;;;;;19.35;14.45;;;;;;;8.70;100.00;101255.78;4996812;28;20038;-87
2020/12/17 08:56:02;;;;;;;16.40;12.90;;;;;;;8.69;100.00;101259.47;4996262;28;20045;-83
2020/12/17 08:58:28;;;;;;;18.63;13.30;;;;;;;8.69;100.00;101264.81;5011271;28;20377;-88
2020/12/17 09:00:53;;;;;;;17.38;13.25;;;;;;;8.70;100.00;101271.84;4980187;28;20033;-88
2020/12/17 09:03:22;;;;;;;17.17;12.60;;;;;;;8.71;100.00;101267.34;4992242;28;20050;-88
2020/12/17 09:06:04;;;;;;;18.45;13.82;;;;;;;8.70;100.00;101271.84;5007524;28;20481;-84
2020/12/17 09:08:32;;;;;;;17.80;13.23;;;;;;;8.71;100.00;101273.53;4992177;28;20136;-89
2020/12/17 09:10:57;;;;;;;19.05;12.77;;;;;;;8.70;100.00;101285.22;4976914;28;20073;-86
2020/12/17 09:13:23;;;;;;;15.05;12.38;;;;;;;8.72;100.00;101280.59;4977584;28;20077;-88
2020/12/17 09:16:02;;;;;;;18.52;12.18;;;;;;;8.75;100.00;101285.66;4987530;28;20088;-88
2020/12/17 09:18:28;;;;;;;;;;;;;;;8.76;100.00;101290.00;5008700;28;20141;-86
2020/12/17 09:21:13;;;;;;;15.00;12.20;;;;;;;8.71;100.00;101281.53;4994643;28;20023;-88
2020/12/17 09:23:40;;;;;;;16.88;12.48;;;;;;;8.71;100.00;101278.88;5007011;28;20057;-88
2020/12/17 09:26:15;;;;;;;16.92;12.15;;;;;;;8.75;100.00;101299.03;4977964;28;20123;-86
2020/12/17 09:28:58;;;;;;;15.88;13.10;;;;;;;8.78;100.00;101301.44;4989689;28;20042;-88
2020/12/17 09:31:30;;;;;;;12.75;11.10;;;;;;;8.81;100.00;101308.34;4976942;28;20038;-85
2020/12/17 09:34:13;;;;;;;16.95;12.68;;;;;;;8.81;100.00;101306.50;4990645;28;20053;-87
2020/12/17 09:36:55;;;;;;;15.63;12.77;;;;;;;8.85;100.00;101309.72;4993118;28;20043;-88
2020/12/17 09:39:20;;;;;;;15.02;11.65;;;;;;;8.85;100.00;101312.41;4967854;28;20034;-87
2020/12/17 09:41:57;;;;;;;16.52;12.13;;;;;;;8.87;100.00;101320.31;4993286;28;20037;-87
2020/12/17 09:44:41;;;;;;;13.82;11.40;;;;;;;8.87;100.00;101320.31;4991910;28;20148;-87
2020/12/17 09:47:09;;;;;;;15.52;12.20;;;;;;;8.90;100.00;101309.31;4991724;28;20045;-91
2020/12/17 09:49:41;;;;;;;16.37;11.70;;;;;;;8.89;100.00;101316.50;4986615;28;20503;-85
2020/12/17 09:52:12;;;;;;;14.68;11.45;;;;;;;8.92;100.00;101318.03;4976234;28;20285;-84
2020/12/17 09:54:42;;;;;;;15.27;11.68;;;;;;;8.92;100.00;101334.97;5001803;28;20050;-88
2020/12/17 09:57:14;;;;;;;16.15;10.85;;;;;;;8.93;100.00;101327.78;5007609;28;20489;-86
2020/12/17 09:59:43;;;;;;;16.10;11.23;;;;;;;8.96;100.00;101339.03;4997803;28;20038;-88
2020/12/17 10:02:12;;;;;;;14.30;9.65;;;;;;;8.97;100.00;101343.41;5004274;28;20558;-87
2020/12/17 10:04:38;;;;;;;;;;;;;;;9.00;100.00;101342.28;4979336;28;20073;-88
2020/12/17 10:07:05;;;;;;;12.05;9.55;;;;;;;8.94;100.00;101350.88;4995585;28;19929;-88
2020/12/17 10:09:30;;;;;;;11.65;9.23;;;;;;;8.95;100.00;101353.41;4973956;28;20061;-86
2020/12/17 10:11:59;;;;;;;11.13;8.57;;;;;;;8.99;100.00;101352.13;4993764;28;20053;-85
2020/12/17 10:14:27;;;;;;;11.35;8.23;;;;;;;9.00;100.00;101345.78;4990048;28;20042;-85
2020/12/17 10:17:03;;;;;;;13.32;9.05;;;;;;;9.02;100.00;101349.19;4977540;28;20041;-86
2020/12/17 10:19:30;;;;;;;13.05;8.48;;;;;;;9.04;100.00;101355.25;4974756;28;20048;-87
2020/12/17 10:21:57;;;;;;;12.02;8.98;;;;;;;9.07;100.00;101358.63;4993525;28;20034;-89
2020/12/17 10:24:23;;;;;;;11.70;8.93;;;;;;;9.08;100.00;101360.31;5005720;28;20069;-86
2020/12/17 10:26:49;;;;;;;11.30;8.23;;;;;;;9.09;100.00;101357.50;4987799;28;20547;-86
2020/12/17 10:29:24;;;;;;;10.07;7.50;;;;;;;9.09;100.00;101362.88;4991596;28;20057;-89
2020/12/17 10:31:50;;;;;;;11.30;8.00;;;;;;;9.12;100.00;101362.59;4987657;28;20050;-86
2020/12/17 10:34:17;;;;;;;12.43;7.18;;;;;;;9.09;100.00;101375.38;4989366;28;20042;-84
2020/12/17 10:36:43;;;;;;;10.20;8.05;;;;;;;9.11;100.00;101379.63;5004112;28;20375;-88
2020/12/17 10:39:12;;;;;;;10.13;7.38;;;;;;;9.12;100.00;101375.97;4990868;28;20050;-85
2020/12/17 10:41:40;;;;;;;10.10;7.27;;;;;;;9.10;100.00;101369.06;4991500;28;20048;-88
2020/12/17 10:44:08;;;;;;;10.15;7.18;;;;;;;9.12;100.00;101377.78;4977920;28;20081;-89
2020/12/17 10:46:36;;;;;;;10.77;7.90;;;;;;;9.14;100.00;101373.97;5000013;28;20046;-86
2020/12/17 10:49:03;;;;;;;12.77;7.50;;;;;;;9.15;100.00;101374.81;4991785;28;20050;-86
2020/12/17 10:51:28;;;;;;;8.85;6.90;;;;;;;9.14;100.00;101375.81;4990463;28;20080;-85
2020/12/17 10:54:01;;;;;;;8.13;6.63;;;;;;;9.15;100.00;101383.72;4993284;28;20078;-87
2020/12/17 10:56:27;;;;;;;9.48;7.00;;;;;;;9.16;100.00;101388.09;4974834;28;20107;-92
2020/12/17 10:58:54;;;;;;;7.70;6.28;;;;;;;9.17;100.00;101372.84;4979475;28;20061;-84
2020/12/17 11:01:23;;;;;;;10.20;6.72;;;;;;;9.20;100.00;101386.81;4992439;28;20429;-85
2020/12/17 11:03:48;;;;;;;11.15;8.32;;;;;;;9.24;100.00;101388.22;4975282;28;20034;-85
2020/12/17 11:06:15;;;;;;;9.82;6.28;;;;;;;9.25;100.00;101375.69;4998866;28;20373;-85
2020/12/17 11:08:41;;;;;;;9.85;6.65;;;;;;;9.23;100.00;101385.69;5000617;28;20048;-86
2020/12/17 11:11:08;;;;;;;8.70;5.82;;;;;;;9.22;99.62;101394.72;4991505;28;20041;-83
2020/12/17 11:13:35;;;;;;;11.23;6.22;;;;;;;9.21;99.54;101396.53;4988071;28;20434;-85
2020/12/17 11:16:00;;;;;;;10.98;6.28;;;;;;;9.22;99.36;101397.38;5008494;28;21001;-89
2020/12/17 11:18:27;;;;;;;10.13;6.63;;;;;;;9.20;98.57;101405.53;5001097;28;20057;-86
2020/12/17 11:20:56;;;;;;;10.57;6.22;;;;;;;9.21;98.57;101406.41;4993443;28;20554;-87
2020/12/17 11:23:21;;;;;;;8.90;5.80;;;;;;;9.21;98.45;101404.59;5004951;28;20065;-87
2020/12/17 11:25:48;;;;;;;10.27;5.70;;;;;;;9.23;98.28;101404.41;5008355;28;20077;-89